sensor_id;sensor_type;location;lat;lon;timestamp;temperature;humidity
38606;DHT22;24365;48.446;8.850;2023-06-26T00:04:13;18.40;52.30
38606;DHT22;24365;48.446;8.850;2023-06-26T00:09:15;18.30;52.60
38606;DHT22;24365;48.446;8.850;2023-06-26T00:14:16;18.30;52.80
38606;DHT22;24365;48.446;8.850;2023-06-26T00:19:17;18.10;53.10
38606;DHT22;24365;48.446;8.850;2023-06-26T00:24:19;18.20;53.10
38606;DHT22;24365;48.446;8.850;2023-06-26T00:29:20;18.20;52.90
38606;DHT22;24365;48.446;8.850;2023-06-26T00:34:21;18.00;53.20
38606;DHT22;24365;48.446;8.850;2023-06-26T00:39:22;17.90;53.50
38606;DHT22;24365;48.446;8.850;2023-06-26T00:44:26;17.90;53.50
38606;DHT22;24365;48.446;8.850;2023-06-26T00:49:28;17.80;53.80
38606;DHT22;24365;48.446;8.850;2023-06-26T00:54:29;17.80;54.00
38606;DHT22;24365;48.446;8.850;2023-06-26T00:59:30;17.70;54.20
38606;DHT22;24365;48.446;8.850;2023-06-26T01:04:32;17.50;54.70
38606;DHT22;24365;48.446;8.850;2023-06-26T01:09:33;17.50;54.70
38606;DHT22;24365;48.446;8.850;2023-06-26T01:14:35;17.50;54.80
38606;DHT22;24365;48.446;8.850;2023-06-26T01:19:37;17.40;54.80
38606;DHT22;24365;48.446;8.850;2023-06-26T01:24:38;17.20;55.30
38606;DHT22;24365;48.446;8.850;2023-06-26T01:29:40;17.10;56.00
38606;DHT22;24365;48.446;8.850;2023-06-26T01:34:43;17.00;55.90
38606;DHT22;24365;48.446;8.850;2023-06-26T01:39:45;17.10;55.90
38606;DHT22;24365;48.446;8.850;2023-06-26T01:44:46;16.70;57.60
38606;DHT22;24365;48.446;8.850;2023-06-26T01:49:52;16.60;58.10
38606;DHT22;24365;48.446;8.850;2023-06-26T02:00:23;16.40;58.60
38606;DHT22;24365;48.446;8.850;2023-06-26T02:05:25;16.40;58.50
38606;DHT22;24365;48.446;8.850;2023-06-26T02:10:26;16.40;58.70
38606;DHT22;24365;48.446;8.850;2023-06-26T02:15:27;16.50;58.20
38606;DHT22;24365;48.446;8.850;2023-06-26T02:20:28;16.50;57.90
38606;DHT22;24365;48.446;8.850;2023-06-26T02:25:29;16.40;58.30
38606;DHT22;24365;48.446;8.850;2023-06-26T02:30:30;16.20;58.80
38606;DHT22;24365;48.446;8.850;2023-06-26T02:35:34;16.10;59.80
38606;DHT22;24365;48.446;8.850;2023-06-26T02:40:36;16.00;59.90
38606;DHT22;24365;48.446;8.850;2023-06-26T02:45:38;16.00;60.20
38606;DHT22;24365;48.446;8.850;2023-06-26T02:50:40;16.10;59.50
38606;DHT22;24365;48.446;8.850;2023-06-26T02:55:44;16.20;59.10
38606;DHT22;24365;48.446;8.850;2023-06-26T03:00:50;16.10;59.10
38606;DHT22;24365;48.446;8.850;2023-06-26T03:05:52;16.20;59.00
38606;DHT22;24365;48.446;8.850;2023-06-26T03:10:54;16.20;58.90
38606;DHT22;24365;48.446;8.850;2023-06-26T03:15:55;16.10;58.70
38606;DHT22;24365;48.446;8.850;2023-06-26T03:20:57;16.00;58.70
38606;DHT22;24365;48.446;8.850;2023-06-26T03:25:58;16.00;58.70
38606;DHT22;24365;48.446;8.850;2023-06-26T03:31:05;16.00;58.60
38606;DHT22;24365;48.446;8.850;2023-06-26T03:36:07;15.90;58.90
38606;DHT22;24365;48.446;8.850;2023-06-26T03:41:09;15.80;59.00
38606;DHT22;24365;48.446;8.850;2023-06-26T03:46:10;15.70;59.40
38606;DHT22;24365;48.446;8.850;2023-06-26T03:51:11;15.70;59.60
38606;DHT22;24365;48.446;8.850;2023-06-26T03:56:13;15.80;59.60
38606;DHT22;24365;48.446;8.850;2023-06-26T04:01:16;15.80;59.40
38606;DHT22;24365;48.446;8.850;2023-06-26T04:06:18;15.80;59.50
38606;DHT22;24365;48.446;8.850;2023-06-26T04:11:19;15.90;59.50
38606;DHT22;24365;48.446;8.850;2023-06-26T04:16:21;15.90;59.50
38606;DHT22;24365;48.446;8.850;2023-06-26T04:21:23;16.00;59.40
38606;DHT22;24365;48.446;8.850;2023-06-26T04:26:25;16.10;59.30
38606;DHT22;24365;48.446;8.850;2023-06-26T04:31:26;16.10;59.00
38606;DHT22;24365;48.446;8.850;2023-06-26T04:36:28;16.10;59.30
38606;DHT22;24365;48.446;8.850;2023-06-26T04:41:29;16.10;59.80
38606;DHT22;24365;48.446;8.850;2023-06-26T04:46:30;16.20;60.10
38606;DHT22;24365;48.446;8.850;2023-06-26T04:51:31;16.40;58.80
38606;DHT22;24365;48.446;8.850;2023-06-26T04:56:39;16.60;58.70
38606;DHT22;24365;48.446;8.850;2023-06-26T05:01:44;16.70;58.60
38606;DHT22;24365;48.446;8.850;2023-06-26T05:06:48;16.90;58.20
38606;DHT22;24365;48.446;8.850;2023-06-26T05:11:50;16.90;58.10
38606;DHT22;24365;48.446;8.850;2023-06-26T05:16:51;17.20;58.00
38606;DHT22;24365;48.446;8.850;2023-06-26T05:21:52;17.50;58.20
38606;DHT22;24365;48.446;8.850;2023-06-26T05:26:53;17.60;57.00
38606;DHT22;24365;48.446;8.850;2023-06-26T05:31:56;17.60;57.10
38606;DHT22;24365;48.446;8.850;2023-06-26T05:36:58;17.70;57.30
38606;DHT22;24365;48.446;8.850;2023-06-26T05:42:00;18.10;57.50
38606;DHT22;24365;48.446;8.850;2023-06-26T05:47:01;18.30;56.90
38606;DHT22;24365;48.446;8.850;2023-06-26T05:52:02;18.60;55.80
38606;DHT22;24365;48.446;8.850;2023-06-26T05:57:03;19.00;56.10
38606;DHT22;24365;48.446;8.850;2023-06-26T06:02:05;19.30;54.70
38606;DHT22;24365;48.446;8.850;2023-06-26T06:07:06;19.60;54.50
38606;DHT22;24365;48.446;8.850;2023-06-26T06:12:08;19.80;53.40
38606;DHT22;24365;48.446;8.850;2023-06-26T06:17:09;20.30;54.00
38606;DHT22;24365;48.446;8.850;2023-06-26T06:22:10;20.70;52.40
38606;DHT22;24365;48.446;8.850;2023-06-26T06:27:11;21.00;51.10
38606;DHT22;24365;48.446;8.850;2023-06-26T06:32:12;21.30;49.70
38606;DHT22;24365;48.446;8.850;2023-06-26T06:37:13;21.80;49.50
38606;DHT22;24365;48.446;8.850;2023-06-26T06:42:14;22.30;47.70
38606;DHT22;24365;48.446;8.850;2023-06-26T06:47:15;22.60;46.10
38606;DHT22;24365;48.446;8.850;2023-06-26T06:52:16;22.90;46.00
38606;DHT22;24365;48.446;8.850;2023-06-26T06:57:17;23.30;45.60
38606;DHT22;24365;48.446;8.850;2023-06-26T07:02:18;23.70;44.20
38606;DHT22;24365;48.446;8.850;2023-06-26T07:07:19;24.10;43.00
38606;DHT22;24365;48.446;8.850;2023-06-26T07:12:20;24.40;41.90
38606;DHT22;24365;48.446;8.850;2023-06-26T07:17:21;24.80;41.00
38606;DHT22;24365;48.446;8.850;2023-06-26T07:22:22;25.20;39.20
38606;DHT22;24365;48.446;8.850;2023-06-26T07:27:23;25.70;39.00
38606;DHT22;24365;48.446;8.850;2023-06-26T07:32:24;26.00;38.40
38606;DHT22;24365;48.446;8.850;2023-06-26T07:37:25;26.30;36.50
38606;DHT22;24365;48.446;8.850;2023-06-26T07:42:26;26.60;34.60
38606;DHT22;24365;48.446;8.850;2023-06-26T07:47:27;27.10;35.00
38606;DHT22;24365;48.446;8.850;2023-06-26T07:52:30;27.40;34.50
38606;DHT22;24365;48.446;8.850;2023-06-26T07:57:31;27.70;33.50
38606;DHT22;24365;48.446;8.850;2023-06-26T08:02:33;28.00;33.60
38606;DHT22;24365;48.446;8.850;2023-06-26T08:07:34;28.30;32.60
38606;DHT22;24365;48.446;8.850;2023-06-26T08:12:35;28.80;31.00
38606;DHT22;24365;48.446;8.850;2023-06-26T08:17:37;28.90;29.80
38606;DHT22;24365;48.446;8.850;2023-06-26T08:22:39;29.00;29.40
38606;DHT22;24365;48.446;8.850;2023-06-26T08:27:40;29.30;29.20
38606;DHT22;24365;48.446;8.850;2023-06-26T08:32:41;29.50;29.20
38606;DHT22;24365;48.446;8.850;2023-06-26T08:37:43;30.00;28.50
38606;DHT22;24365;48.446;8.850;2023-06-26T08:42:44;30.10;28.40
38606;DHT22;24365;48.446;8.850;2023-06-26T08:47:45;30.30;28.10
38606;DHT22;24365;48.446;8.850;2023-06-26T08:52:53;30.60;27.00
38606;DHT22;24365;48.446;8.850;2023-06-26T08:57:55;30.70;27.30
38606;DHT22;24365;48.446;8.850;2023-06-26T09:03:09;30.70;27.80
38606;DHT22;24365;48.446;8.850;2023-06-26T09:08:15;30.70;26.40
38606;DHT22;24365;48.446;8.850;2023-06-26T09:13:16;31.10;26.80
38606;DHT22;24365;48.446;8.850;2023-06-26T09:18:20;31.40;26.90
38606;DHT22;24365;48.446;8.850;2023-06-26T09:23:22;31.70;26.90
38606;DHT22;24365;48.446;8.850;2023-06-26T09:28:23;31.60;26.00
38606;DHT22;24365;48.446;8.850;2023-06-26T09:33:24;31.80;26.40
38606;DHT22;24365;48.446;8.850;2023-06-26T09:38:25;32.30;26.70
38606;DHT22;24365;48.446;8.850;2023-06-26T09:43:27;32.40;23.40
38606;DHT22;24365;48.446;8.850;2023-06-26T09:48:28;32.40;24.90
38606;DHT22;24365;48.446;8.850;2023-06-26T09:53:29;32.70;24.10
38606;DHT22;24365;48.446;8.850;2023-06-26T09:58:31;32.70;24.20
38606;DHT22;24365;48.446;8.850;2023-06-26T10:03:33;32.80;23.30
38606;DHT22;24365;48.446;8.850;2023-06-26T10:08:34;32.90;24.10
38606;DHT22;24365;48.446;8.850;2023-06-26T10:13:42;33.30;23.70
38606;DHT22;24365;48.446;8.850;2023-06-26T10:18:47;33.70;23.30
38606;DHT22;24365;48.446;8.850;2023-06-26T10:23:52;33.80;23.10
38606;DHT22;24365;48.446;8.850;2023-06-26T10:28:54;33.70;23.60
38606;DHT22;24365;48.446;8.850;2023-06-26T10:33:56;33.60;23.40
38606;DHT22;24365;48.446;8.850;2023-06-26T10:39:01;33.10;23.60
38606;DHT22;24365;48.446;8.850;2023-06-26T10:44:16;33.10;24.60
38606;DHT22;24365;48.446;8.850;2023-06-26T10:49:17;33.40;24.40
38606;DHT22;24365;48.446;8.850;2023-06-26T10:54:19;33.60;23.80
38606;DHT22;24365;48.446;8.850;2023-06-26T10:59:22;33.40;24.90
38606;DHT22;24365;48.446;8.850;2023-06-26T11:15:00;33.00;25.90
38606;DHT22;24365;48.446;8.850;2023-06-26T11:20:01;32.70;25.50
38606;DHT22;24365;48.446;8.850;2023-06-26T11:25:03;32.30;26.10
38606;DHT22;24365;48.446;8.850;2023-06-26T11:30:07;32.70;26.30
38606;DHT22;24365;48.446;8.850;2023-06-26T11:35:08;33.20;26.70
38606;DHT22;24365;48.446;8.850;2023-06-26T11:40:17;33.20;25.80
38606;DHT22;24365;48.446;8.850;2023-06-26T11:45:19;33.20;25.20
38606;DHT22;24365;48.446;8.850;2023-06-26T11:50:20;33.30;25.50
38606;DHT22;24365;48.446;8.850;2023-06-26T11:55:22;33.30;25.30
38606;DHT22;24365;48.446;8.850;2023-06-26T12:00:23;33.40;25.60
38606;DHT22;24365;48.446;8.850;2023-06-26T12:05:24;33.50;25.20
38606;DHT22;24365;48.446;8.850;2023-06-26T12:10:26;33.70;25.40
38606;DHT22;24365;48.446;8.850;2023-06-26T12:15:28;33.90;24.60
38606;DHT22;24365;48.446;8.850;2023-06-26T12:20:29;33.80;25.20
38606;DHT22;24365;48.446;8.850;2023-06-26T12:25:33;33.80;25.10
38606;DHT22;24365;48.446;8.850;2023-06-26T12:30:34;33.70;25.60
38606;DHT22;24365;48.446;8.850;2023-06-26T12:35:35;33.60;25.30
38606;DHT22;24365;48.446;8.850;2023-06-26T12:40:45;33.60;26.00
38606;DHT22;24365;48.446;8.850;2023-06-26T12:45:46;33.60;26.30
38606;DHT22;24365;48.446;8.850;2023-06-26T12:50:47;33.80;26.10
38606;DHT22;24365;48.446;8.850;2023-06-26T12:55:51;34.00;25.70
38606;DHT22;24365;48.446;8.850;2023-06-26T13:00:52;33.90;26.50
38606;DHT22;24365;48.446;8.850;2023-06-26T13:05:54;34.00;26.30
38606;DHT22;24365;48.446;8.850;2023-06-26T13:10:55;34.20;26.70
38606;DHT22;24365;48.446;8.850;2023-06-26T13:15:56;33.90;25.60
38606;DHT22;24365;48.446;8.850;2023-06-26T13:20:57;33.60;26.00
38606;DHT22;24365;48.446;8.850;2023-06-26T13:25:58;33.40;26.20
38606;DHT22;24365;48.446;8.850;2023-06-26T13:31:00;33.50;25.90
38606;DHT22;24365;48.446;8.850;2023-06-26T13:36:01;33.30;26.30
38606;DHT22;24365;48.446;8.850;2023-06-26T13:41:05;32.80;26.30
38606;DHT22;24365;48.446;8.850;2023-06-26T13:46:07;32.60;26.60
38606;DHT22;24365;48.446;8.850;2023-06-26T13:51:08;32.40;27.10
38606;DHT22;24365;48.446;8.850;2023-06-26T13:56:09;32.70;26.80
38606;DHT22;24365;48.446;8.850;2023-06-26T14:01:10;32.40;26.60
38606;DHT22;24365;48.446;8.850;2023-06-26T14:06:11;32.10;27.10
38606;DHT22;24365;48.446;8.850;2023-06-26T14:11:12;32.20;27.20
38606;DHT22;24365;48.446;8.850;2023-06-26T14:16:13;32.40;26.20
38606;DHT22;24365;48.446;8.850;2023-06-26T14:21:15;32.20;26.90
38606;DHT22;24365;48.446;8.850;2023-06-26T14:26:16;32.10;26.70
38606;DHT22;24365;48.446;8.850;2023-06-26T14:31:17;31.90;26.70
38606;DHT22;24365;48.446;8.850;2023-06-26T14:36:18;32.00;26.10
38606;DHT22;24365;48.446;8.850;2023-06-26T14:41:19;31.90;26.90
38606;DHT22;24365;48.446;8.850;2023-06-26T14:46:20;31.80;26.50
38606;DHT22;24365;48.446;8.850;2023-06-26T14:51:21;31.70;26.20
38606;DHT22;24365;48.446;8.850;2023-06-26T14:56:22;31.60;26.40
38606;DHT22;24365;48.446;8.850;2023-06-26T15:01:23;31.70;27.20
38606;DHT22;24365;48.446;8.850;2023-06-26T15:06:24;31.60;26.20
38606;DHT22;24365;48.446;8.850;2023-06-26T15:11:26;31.50;26.60
38606;DHT22;24365;48.446;8.850;2023-06-26T15:16:27;31.30;26.30
38606;DHT22;24365;48.446;8.850;2023-06-26T15:21:29;31.00;26.70
38606;DHT22;24365;48.446;8.850;2023-06-26T15:26:31;30.80;26.60
38606;DHT22;24365;48.446;8.850;2023-06-26T15:31:32;30.80;26.90
38606;DHT22;24365;48.446;8.850;2023-06-26T15:36:32;30.90;26.60
38606;DHT22;24365;48.446;8.850;2023-06-26T15:41:33;30.60;26.90
38606;DHT22;24365;48.446;8.850;2023-06-26T15:46:37;30.50;27.50
38606;DHT22;24365;48.446;8.850;2023-06-26T15:51:38;30.50;27.70
38606;DHT22;24365;48.446;8.850;2023-06-26T15:56:39;30.50;27.40
38606;DHT22;24365;48.446;8.850;2023-06-26T16:01:40;30.40;27.40
38606;DHT22;24365;48.446;8.850;2023-06-26T16:06:41;30.10;28.00
38606;DHT22;24365;48.446;8.850;2023-06-26T16:11:42;29.90;27.60
38606;DHT22;24365;48.446;8.850;2023-06-26T16:16:43;29.70;27.80
38606;DHT22;24365;48.446;8.850;2023-06-26T16:21:44;29.70;28.10
38606;DHT22;24365;48.446;8.850;2023-06-26T16:26:45;29.40;28.20
38606;DHT22;24365;48.446;8.850;2023-06-26T16:31:46;29.20;28.70
38606;DHT22;24365;48.446;8.850;2023-06-26T16:36:48;29.20;28.50
38606;DHT22;24365;48.446;8.850;2023-06-26T16:41:50;29.00;29.00
38606;DHT22;24365;48.446;8.850;2023-06-26T16:46:58;28.90;28.20
38606;DHT22;24365;48.446;8.850;2023-06-26T16:51:59;28.60;28.00
38606;DHT22;24365;48.446;8.850;2023-06-26T16:57:01;28.30;28.10
38606;DHT22;24365;48.446;8.850;2023-06-26T17:02:02;28.10;28.10
38606;DHT22;24365;48.446;8.850;2023-06-26T17:07:03;27.60;27.70
38606;DHT22;24365;48.446;8.850;2023-06-26T17:12:05;27.40;27.90
38606;DHT22;24365;48.446;8.850;2023-06-26T17:17:06;27.20;28.40
38606;DHT22;24365;48.446;8.850;2023-06-26T17:22:07;27.20;27.70
38606;DHT22;24365;48.446;8.850;2023-06-26T17:27:08;27.20;27.30
38606;DHT22;24365;48.446;8.850;2023-06-26T17:32:11;27.10;27.40
38606;DHT22;24365;48.446;8.850;2023-06-26T17:37:11;27.00;27.30
38606;DHT22;24365;48.446;8.850;2023-06-26T17:42:12;26.90;26.70
38606;DHT22;24365;48.446;8.850;2023-06-26T17:47:13;26.80;26.90
38606;DHT22;24365;48.446;8.850;2023-06-26T17:52:14;26.70;27.60
38606;DHT22;24365;48.446;8.850;2023-06-26T17:57:15;26.70;27.30
38606;DHT22;24365;48.446;8.850;2023-06-26T18:02:16;26.70;26.90
38606;DHT22;24365;48.446;8.850;2023-06-26T18:07:17;26.60;26.90
38606;DHT22;24365;48.446;8.850;2023-06-26T18:12:19;26.40;26.80
38606;DHT22;24365;48.446;8.850;2023-06-26T18:17:20;26.20;27.20
38606;DHT22;24365;48.446;8.850;2023-06-26T18:22:21;26.00;27.60
38606;DHT22;24365;48.446;8.850;2023-06-26T18:27:21;25.90;27.30
38606;DHT22;24365;48.446;8.850;2023-06-26T18:32:23;25.70;26.90
38606;DHT22;24365;48.446;8.850;2023-06-26T18:37:24;25.50;28.10
38606;DHT22;24365;48.446;8.850;2023-06-26T18:42:25;25.40;27.80
38606;DHT22;24365;48.446;8.850;2023-06-26T18:47:25;25.20;28.10
38606;DHT22;24365;48.446;8.850;2023-06-26T18:52:26;25.10;28.40
38606;DHT22;24365;48.446;8.850;2023-06-26T18:57:27;24.90;28.80
38606;DHT22;24365;48.446;8.850;2023-06-26T19:02:29;24.80;28.50
38606;DHT22;24365;48.446;8.850;2023-06-26T19:07:29;24.60;28.80
38606;DHT22;24365;48.446;8.850;2023-06-26T19:12:30;24.40;29.10
38606;DHT22;24365;48.446;8.850;2023-06-26T19:17:31;24.30;29.40
38606;DHT22;24365;48.446;8.850;2023-06-26T19:22:32;24.10;29.60
38606;DHT22;24365;48.446;8.850;2023-06-26T19:27:33;24.00;29.70
38606;DHT22;24365;48.446;8.850;2023-06-26T19:32:35;23.80;29.70
38606;DHT22;24365;48.446;8.850;2023-06-26T19:37:36;23.70;29.60
38606;DHT22;24365;48.446;8.850;2023-06-26T19:42:37;23.50;29.90
38606;DHT22;24365;48.446;8.850;2023-06-26T19:47:38;23.30;30.00
38606;DHT22;24365;48.446;8.850;2023-06-26T19:52:40;23.00;30.20
38606;DHT22;24365;48.446;8.850;2023-06-26T19:57:44;23.00;30.70
38606;DHT22;24365;48.446;8.850;2023-06-26T20:02:45;22.90;30.70
38606;DHT22;24365;48.446;8.850;2023-06-26T20:07:46;22.80;30.90
38606;DHT22;24365;48.446;8.850;2023-06-26T20:12:47;22.70;31.50
38606;DHT22;24365;48.446;8.850;2023-06-26T20:17:48;22.60;32.00
38606;DHT22;24365;48.446;8.850;2023-06-26T20:22:49;22.40;32.20
38606;DHT22;24365;48.446;8.850;2023-06-26T20:27:51;22.40;33.50
38606;DHT22;24365;48.446;8.850;2023-06-26T20:32:52;22.20;33.00
38606;DHT22;24365;48.446;8.850;2023-06-26T20:37:53;22.10;32.50
38606;DHT22;24365;48.446;8.850;2023-06-26T20:42:54;22.00;33.10
38606;DHT22;24365;48.446;8.850;2023-06-26T20:47:56;21.90;33.90
38606;DHT22;24365;48.446;8.850;2023-06-26T20:52:57;21.80;34.10
38606;DHT22;24365;48.446;8.850;2023-06-26T20:57:59;21.70;34.60
38606;DHT22;24365;48.446;8.850;2023-06-26T21:03:00;21.40;35.20
38606;DHT22;24365;48.446;8.850;2023-06-26T21:08:00;21.30;36.00
38606;DHT22;24365;48.446;8.850;2023-06-26T21:13:01;21.20;36.50
38606;DHT22;24365;48.446;8.850;2023-06-26T21:18:03;21.10;36.80
38606;DHT22;24365;48.446;8.850;2023-06-26T21:23:05;20.90;36.70
38606;DHT22;24365;48.446;8.850;2023-06-26T21:28:06;20.80;36.80
38606;DHT22;24365;48.446;8.850;2023-06-26T21:33:07;20.70;37.50
38606;DHT22;24365;48.446;8.850;2023-06-26T21:38:08;20.60;37.90
38606;DHT22;24365;48.446;8.850;2023-06-26T21:43:09;20.40;38.50
38606;DHT22;24365;48.446;8.850;2023-06-26T21:48:10;20.40;38.80
38606;DHT22;24365;48.446;8.850;2023-06-26T21:53:11;20.20;38.80
38606;DHT22;24365;48.446;8.850;2023-06-26T21:58:12;20.10;39.20
38606;DHT22;24365;48.446;8.850;2023-06-26T22:03:13;20.00;39.30
38606;DHT22;24365;48.446;8.850;2023-06-26T22:08:14;19.80;39.80
38606;DHT22;24365;48.446;8.850;2023-06-26T22:13:16;19.70;40.20
38606;DHT22;24365;48.446;8.850;2023-06-26T22:18:17;19.50;40.70
38606;DHT22;24365;48.446;8.850;2023-06-26T22:23:19;19.40;41.20
38606;DHT22;24365;48.446;8.850;2023-06-26T22:28:20;19.40;40.70
38606;DHT22;24365;48.446;8.850;2023-06-26T22:33:21;19.30;40.80
38606;DHT22;24365;48.446;8.850;2023-06-26T22:38:22;19.20;41.10
38606;DHT22;24365;48.446;8.850;2023-06-26T22:43:23;19.10;41.00
38606;DHT22;24365;48.446;8.850;2023-06-26T22:48:24;19.00;40.80
38606;DHT22;24365;48.446;8.850;2023-06-26T22:53:25;19.00;40.70
38606;DHT22;24365;48.446;8.850;2023-06-26T22:58:26;18.90;40.50
38606;DHT22;24365;48.446;8.850;2023-06-26T23:03:27;18.90;40.70
38606;DHT22;24365;48.446;8.850;2023-06-26T23:08:28;18.80;40.90
38606;DHT22;24365;48.446;8.850;2023-06-26T23:13:29;18.80;41.20
38606;DHT22;24365;48.446;8.850;2023-06-26T23:18:30;18.80;41.40
38606;DHT22;24365;48.446;8.850;2023-06-26T23:23:32;18.70;41.30
38606;DHT22;24365;48.446;8.850;2023-06-26T23:28:37;18.70;41.40
38606;DHT22;24365;48.446;8.850;2023-06-26T23:33:38;18.60;41.70
38606;DHT22;24365;48.446;8.850;2023-06-26T23:38:42;18.50;41.90
38606;DHT22;24365;48.446;8.850;2023-06-26T23:43:43;18.40;42.20
38606;DHT22;24365;48.446;8.850;2023-06-26T23:48:44;18.40;42.50
38606;DHT22;24365;48.446;8.850;2023-06-26T23:53:45;18.40;42.90
38606;DHT22;24365;48.446;8.850;2023-06-26T23:58:46;18.30;42.80
